Time;durP1;ratioP1;P1;durP2;ratioP2;P2;SDS_P1;SDS_P2;PMS_P1;PMS_P2;Temp;Humidity;BMP_temperature;BMP_pressure;BME280_temperature;BME280_humidity;BME280_pressure;Samples;Min_cycle;Max_cycle;Signal;HPM_P1;HPM_P2
2021/06/15 00:00:40;;;;;;;6.07;3.10;;;17.30;85.80;;;;;;5072074;28;20036;-65
2021/06/15 00:03:06;;;;;;;4.90;2.97;;;17.30;86.10;;;;;;5068301;28;20120;-66
2021/06/15 00:05:31;;;;;;;6.53;3.30;;;17.30;86.20;;;;;;5074407;28;20024;-65
2021/06/15 00:07:57;;;;;;;3.45;2.60;;;17.20;86.40;;;;;;5068551;28;20030;-65
2021/06/15 00:10:25;;;;;;;4.63;3.15;;;17.20;86.40;;;;;;5070018;28;20096;-66
2021/06/15 00:12:52;;;;;;;6.18;3.15;;;17.10;86.60;;;;;;5072588;28;20047;-65
2021/06/15 00:15:19;;;;;;;6.38;3.22;;;17.10;87.00;;;;;;5073761;28;20523;-65
2021/06/15 00:17:46;;;;;;;5.32;2.78;;;17.00;87.60;;;;;;5063930;28;20024;-65
2021/06/15 00:20:12;;;;;;;3.67;2.90;;;17.00;87.90;;;;;;5073979;28;20094;-66
2021/06/15 00:22:38;;;;;;;4.35;2.70;;;17.00;88.50;;;;;;5067664;28;20102;-65
2021/06/15 00:25:05;;;;;;;4.75;2.67;;;16.90;89.00;;;;;;5072974;28;20032;-67
2021/06/15 00:27:31;;;;;;;4.93;3.25;;;16.90;89.30;;;;;;5072865;28;20533;-66
2021/06/15 00:29:57;;;;;;;5.45;2.90;;;16.80;89.80;;;;;;5073848;28;20111;-65
2021/06/15 00:32:24;;;;;;;4.43;3.08;;;16.80;90.20;;;;;;5072299;28;20620;-66
2021/06/15 00:34:49;;;;;;;5.15;3.30;;;16.70;90.50;;;;;;5072635;28;20025;-65
2021/06/15 00:37:15;;;;;;;3.45;2.70;;;16.70;91.00;;;;;;5073292;28;20028;-65
2021/06/15 00:39:41;;;;;;;6.43;2.78;;;16.60;90.80;;;;;;5073532;28;20462;-65
2021/06/15 00:42:07;;;;;;;6.13;2.83;;;16.60;90.80;;;;;;5072993;28;20103;-65
2021/06/15 00:44:34;;;;;;;4.60;2.70;;;16.60;90.80;;;;;;5073617;28;20423;-66
2021/06/15 00:47:00;;;;;;;5.30;2.75;;;16.60;90.80;;;;;;5066117;28;20059;-65
2021/06/15 00:49:32;;;;;;;5.63;2.60;;;16.50;90.90;;;;;;5072907;28;20052;-65
2021/06/15 00:51:58;;;;;;;3.17;2.53;;;16.50;90.90;;;;;;5073393;28;20044;-65
2021/06/15 00:54:24;;;;;;;3.05;2.60;;;16.50;91.20;;;;;;5073001;28;20615;-65
2021/06/15 00:56:50;;;;;;;4.10;2.63;;;16.50;91.50;;;;;;5073296;28;20035;-65
2021/06/15 00:59:16;;;;;;;4.05;2.80;;;16.40;91.80;;;;;;5072947;28;20048;-65
2021/06/15 01:01:42;;;;;;;3.40;2.78;;;16.40;92.20;;;;;;5074169;28;20102;-65
2021/06/15 01:04:08;;;;;;;6.90;3.00;;;16.30;92.50;;;;;;5072922;28;20059;-65
2021/06/15 01:06:52;;;;;;;3.75;2.70;;;16.30;92.70;;;;;;5073292;28;20032;-65
2021/06/15 01:09:45;;;;;;;4.53;3.10;;;16.30;92.90;;;;;;5068167;28;20052;-65
2021/06/15 01:12:36;;;;;;;4.30;3.08;;;16.30;93.10;;;;;;5071909;28;20032;-65
2021/06/15 01:15:12;;;;;;;3.20;2.80;;;16.20;93.50;;;;;;5073001;28;20036;-66
2021/06/15 01:17:44;;;;;;;3.92;2.35;;;16.20;93.80;;;;;;5055246;28;20393;-65
2021/06/15 01:20:18;;;;;;;4.97;2.92;;;16.10;93.90;;;;;;5072137;28;20111;-65
2021/06/15 01:22:44;;;;;;;2.63;2.30;;;16.10;94.10;;;;;;5072690;28;20032;-66
2021/06/15 01:25:32;;;;;;;4.93;2.70;;;16.10;94.40;;;;;;5071626;28;20024;-65
2021/06/15 01:28:13;;;;;;;5.05;2.78;;;16.00;94.80;;;;;;5072910;28;20474;-66
2021/06/15 01:31:02;;;;;;;6.05;3.13;;;16.00;95.20;;;;;;5072930;28;20047;-65
2021/06/15 01:33:32;;;;;;;4.72;3.25;;;16.00;95.50;;;;;;5071729;28;20050;-64
2021/06/15 01:35:59;;;;;;;8.88;3.10;;;16.00;95.70;;;;;;5072479;28;20082;-63
2021/06/15 01:38:32;;;;;;;4.22;2.40;;;16.00;95.80;;;;;;5071376;28;20624;-64
2021/06/15 01:41:13;;;;;;;3.20;2.60;;;15.90;95.90;;;;;;5072580;28;20036;-64
2021/06/15 01:43:51;;;;;;;4.15;2.47;;;15.90;95.90;;;;;;5071914;28;20480;-64
2021/06/15 01:46:24;;;;;;;5.05;2.92;;;15.90;96.00;;;;;;5067926;28;20024;-64
2021/06/15 01:48:57;;;;;;;4.25;2.95;;;15.90;96.30;;;;;;5072221;28;20042;-64
2021/06/15 01:51:24;;;;;;;3.85;3.05;;;15.80;96.70;;;;;;5071069;28;20864;-64
2021/06/15 01:54:00;;;;;;;3.13;2.60;;;15.80;96.90;;;;;;5069669;28;20057;-64
2021/06/15 01:56:28;;;;;;;3.70;2.78;;;15.70;97.20;;;;;;5047218;28;20684;-64
2021/06/15 01:58:56;;;;;;;6.25;3.33;;;15.70;97.50;;;;;;5054429;28;20032;-63
2021/06/15 02:01:22;;;;;;;3.42;2.97;;;15.70;97.90;;;;;;5071121;28;20488;-64
2021/06/15 02:03:53;;;;;;;4.00;2.92;;;15.70;98.00;;;;;;5072025;28;20040;-63
2021/06/15 02:06:21;;;;;;;3.72;3.33;;;15.70;98.30;;;;;;5071539;28;20024;-64
2021/06/15 02:08:50;;;;;;;6.28;3.38;;;15.60;98.50;;;;;;5067521;28;20037;-64
2021/06/15 02:11:17;;;;;;;5.03;3.20;;;15.60;98.50;;;;;;5071241;28;20470;-64
2021/06/15 02:13:46;;;;;;;4.25;2.97;;;15.60;98.60;;;;;;5071770;28;20044;-64
2021/06/15 02:16:13;;;;;;;5.90;3.55;;;15.60;98.80;;;;;;5069324;28;20485;-63
2021/06/15 02:18:41;;;;;;;8.93;2.80;;;15.50;99.00;;;;;;5071939;28;20040;-64
2021/06/15 02:21:13;;;;;;;3.90;3.10;;;15.50;99.00;;;;;;5071719;28;20033;-65
2021/06/15 02:23:42;;;;;;;4.70;3.13;;;15.50;99.10;;;;;;5071807;28;20029;-64
2021/06/15 02:26:10;;;;;;;5.85;3.00;;;15.50;99.00;;;;;;5063480;28;20033;-66
2021/06/15 02:28:37;;;;;;;4.10;3.00;;;15.50;99.10;;;;;;5071559;28;20028;-64
2021/06/15 02:31:05;;;;;;;3.45;3.15;;;15.50;99.00;;;;;;5071506;28;20428;-64
2021/06/15 02:33:41;;;;;;;3.75;3.03;;;15.50;99.00;;;;;;5071107;28;20039;-64
2021/06/15 02:36:17;;;;;;;5.82;3.30;;;15.50;99.20;;;;;;5071612;28;20090;-65
2021/06/15 02:38:54;;;;;;;3.92;3.13;;;15.40;99.90;;;;;;5071914;28;20028;-64
2021/06/15 02:41:21;;;;;;;5.03;3.40;;;15.40;99.90;;;;;;5071197;28;20525;-64
2021/06/15 02:43:56;;;;;;;5.80;3.40;;;15.40;99.90;;;;;;5069937;28;20043;-64
2021/06/15 02:46:25;;;;;;;3.65;3.22;;;15.20;99.90;;;;;;5070683;28;20033;-64
2021/06/15 02:48:55;;;;;;;5.47;3.97;;;15.20;99.90;;;;;;5071480;28;20545;-65
2021/06/15 02:51:24;;;;;;;7.57;3.75;;;15.20;99.90;;;;;;5071100;28;20420;-64
2021/06/15 02:54:03;;;;;;;7.22;3.92;;;15.20;99.90;;;;;;5077492;28;20097;-64
2021/06/15 02:56:32;;;;;;;5.68;3.30;;;15.20;99.90;;;;;;5083735;28;20028;-64
2021/06/15 02:58:58;;;;;;;5.30;3.08;;;15.10;99.90;;;;;;5090761;28;20435;-64
2021/06/15 03:01:23;;;;;;;3.75;2.95;;;15.10;99.90;;;;;;5090492;28;20024;-64
2021/06/15 03:03:49;;;;;;;3.92;2.80;;;15.10;99.90;;;;;;5091000;28;20032;-64
2021/06/15 03:06:15;;;;;;;5.13;2.95;;;15.10;99.90;;;;;;5090652;28;20031;-64
2021/06/15 03:08:41;;;;;;;5.50;3.45;;;15.10;99.90;;;;;;5091153;28;20500;-64
2021/06/15 03:11:07;;;;;;;5.97;3.50;;;15.10;99.90;;;;;;5090322;28;20038;-65
2021/06/15 03:13:44;;;;;;;5.75;3.67;;;15.10;99.90;;;;;;5090734;28;20106;-64
2021/06/15 03:16:14;;;;;;;4.45;3.40;;;15.00;99.90;;;;;;5083858;28;20032;-65
2021/06/15 03:18:46;;;;;;;4.95;3.70;;;15.00;99.90;;;;;;5091344;28;20119;-64
2021/06/15 03:21:19;;;;;;;7.15;3.33;;;15.00;99.90;;;;;;5083319;28;20120;-64
2021/06/15 03:23:57;;;;;;;5.65;3.72;;;15.00;99.90;;;;;;5091238;28;20032;-64
2021/06/15 03:26:45;;;;;;;6.75;3.25;;;14.90;99.90;;;;;;5090640;28;20085;-64
2021/06/15 03:29:16;;;;;;;5.35;3.55;;;15.00;99.90;;;;;;5090299;28;20063;-66
2021/06/15 03:31:45;;;;;;;8.55;3.72;;;15.00;99.90;;;;;;5091079;28;20035;-64
2021/06/15 03:34:14;;;;;;;6.03;3.72;;;15.00;99.90;;;;;;5090383;28;20032;-65
2021/06/15 03:36:42;;;;;;;5.78;3.38;;;15.00;99.90;;;;;;5091073;28;20020;-64
2021/06/15 03:39:08;;;;;;;6.00;4.18;;;15.00;99.90;;;;;;5090864;28;20040;-65
2021/06/15 03:41:36;;;;;;;4.43;3.47;;;14.90;99.90;;;;;;5090857;28;20043;-64
2021/06/15 03:44:04;;;;;;;4.60;3.42;;;15.00;99.90;;;;;;5091176;28;20108;-64
2021/06/15 03:46:32;;;;;;;4.53;3.55;;;14.90;99.90;;;;;;5090272;28;20070;-64
2021/06/15 03:49:00;;;;;;;4.55;3.60;;;14.90;99.90;;;;;;5091116;28;20396;-64
2021/06/15 03:51:32;;;;;;;5.68;4.05;;;14.90;99.90;;;;;;5090665;28;20055;-64
2021/06/15 03:54:06;;;;;;;5.90;4.03;;;14.90;99.90;;;;;;5075717;28;20044;-64
2021/06/15 03:57:01;;;;;;;5.82;4.05;;;14.90;99.90;;;;;;5070224;28;20166;-66
2021/06/15 03:59:31;;;;;;;5.65;3.53;;;14.90;99.90;;;;;;5048807;28;20044;-66
2021/06/15 04:02:02;;;;;;;4.90;3.70;;;14.90;99.90;;;;;;5070976;28;20035;-64
2021/06/15 04:04:31;;;;;;;7.78;4.20;;;15.00;99.90;;;;;;5069769;28;20048;-64
2021/06/15 04:06:58;;;;;;;5.13;3.75;;;15.00;99.90;;;;;;5071267;28;20037;-64
2021/06/15 04:09:31;;;;;;;4.72;3.40;;;15.00;99.90;;;;;;5053186;28;20408;-64
2021/06/15 04:11:58;;;;;;;5.07;3.53;;;15.00;99.90;;;;;;5074216;28;20028;-66
2021/06/15 04:14:26;;;;;;;6.00;3.80;;;15.00;99.90;;;;;;5073735;28;20108;-64
2021/06/15 04:16:54;;;;;;;5.60;3.42;;;15.10;99.90;;;;;;5050553;28;20060;-65
2021/06/15 04:19:27;;;;;;;5.88;3.90;;;15.20;99.90;;;;;;5073446;28;20120;-65
2021/06/15 04:21:55;;;;;;;4.03;3.28;;;15.20;99.90;;;;;;5074631;28;20036;-63
2021/06/15 04:24:24;;;;;;;4.68;3.70;;;15.20;99.90;;;;;;5073210;28;20036;-64
2021/06/15 04:26:52;;;;;;;7.18;3.55;;;15.30;99.90;;;;;;5074355;28;20039;-64
2021/06/15 04:29:18;;;;;;;5.85;4.05;;;15.30;99.90;;;;;;5073272;28;20032;-66
2021/06/15 04:31:46;;;;;;;8.65;4.68;;;15.40;99.90;;;;;;5073969;28;20103;-64
2021/06/15 04:34:14;;;;;;;6.30;4.50;;;15.50;99.90;;;;;;5073477;28;20111;-66
2021/06/15 04:36:43;;;;;;;5.15;4.30;;;15.50;99.90;;;;;;5073778;28;20401;-64
2021/06/15 04:39:15;;;;;;;7.25;4.45;;;15.60;99.90;;;;;;5073850;28;20077;-65
2021/06/15 04:41:56;;;;;;;7.47;5.32;;;15.70;99.90;;;;;;5074010;28;20025;-65
2021/06/15 04:44:28;;;;;;;5.60;3.90;;;15.80;99.90;;;;;;5066636;28;20037;-65
2021/06/15 04:47:02;;;;;;;5.65;4.40;;;15.90;99.90;;;;;;5072970;28;20090;-64
2021/06/15 04:49:44;;;;;;;9.40;4.80;;;16.00;99.90;;;;;;5072378;28;20085;-64
2021/06/15 04:52:13;;;;;;;6.93;4.20;;;16.10;99.90;;;;;;5073255;28;20383;-67
2021/06/15 04:54:41;;;;;;;4.30;3.60;;;16.20;99.90;;;;;;5055833;28;20477;-64
2021/06/15 04:57:10;;;;;;;6.65;4.00;;;16.30;99.80;;;;;;5073625;28;20031;-64
2021/06/15 04:59:38;;;;;;;4.85;3.88;;;16.40;99.30;;;;;;5072752;28;20041;-66
2021/06/15 05:02:05;;;;;;;4.88;3.97;;;16.50;98.90;;;;;;5072879;28;20020;-66
2021/06/15 05:04:35;;;;;;;6.05;3.60;;;16.60;98.60;;;;;;5072756;28;20116;-64
2021/06/15 05:07:02;;;;;;;6.22;4.28;;;16.70;97.80;;;;;;5073071;28;20461;-64
2021/06/15 05:09:30;;;;;;;7.65;4.63;;;16.80;97.60;;;;;;5072401;28;20055;-64
2021/06/15 05:11:57;;;;;;;8.57;4.75;;;17.00;97.50;;;;;;5073112;28;20029;-64
2021/06/15 05:14:28;;;;;;;10.27;4.78;;;17.10;96.90;;;;;;5072477;28;20033;-65
2021/06/15 05:16:55;;;;;;;6.68;4.32;;;17.20;96.40;;;;;;5072836;28;20064;-65
2021/06/15 05:19:22;;;;;;;5.45;4.25;;;17.30;96.00;;;;;;5072299;28;20032;-65
2021/06/15 05:21:59;;;;;;;6.07;4.30;;;17.40;95.60;;;;;;5073083;28;20047;-65
2021/06/15 05:24:28;;;;;;;7.55;4.35;;;17.50;95.30;;;;;;5072170;28;20036;-65
2021/06/15 05:26:54;;;;;;;5.97;4.68;;;17.60;94.50;;;;;;5072933;28;20450;-65
2021/06/15 05:29:19;;;;;;;8.15;4.25;;;17.80;94.20;;;;;;5054465;28;20078;-65
2021/06/15 05:31:45;;;;;;;7.85;4.38;;;17.90;93.80;;;;;;5072571;28;20031;-65
2021/06/15 05:34:11;;;;;;;11.60;5.18;;;18.00;93.50;;;;;;5072734;28;20394;-66
2021/06/15 05:36:37;;;;;;;13.25;4.63;;;18.10;93.30;;;;;;5072214;28;20052;-65
2021/06/15 05:39:03;;;;;;;10.10;4.50;;;18.20;92.80;;;;;;5066327;28;20032;-65
2021/06/15 05:41:29;;;;;;;5.00;4.30;;;18.30;92.70;;;;;;5073425;28;20430;-65
2021/06/15 05:43:54;;;;;;;6.25;3.67;;;18.40;92.70;;;;;;5055111;28;20132;-65
2021/06/15 05:46:20;;;;;;;11.68;5.25;;;18.40;92.40;;;;;;5058338;28;20064;-66
2021/06/15 05:48:46;;;;;;;6.80;4.40;;;18.60;92.40;;;;;;5052449;28;20117;-65
2021/06/15 05:51:11;;;;;;;6.25;4.35;;;18.70;91.70;;;;;;5052744;28;20037;-66
2021/06/15 05:53:37;;;;;;;8.82;5.10;;;18.90;91.20;;;;;;5064045;28;20147;-65
2021/06/15 05:56:04;;;;;;;6.97;4.40;;;19.00;90.80;;;;;;5072447;28;20032;-65
2021/06/15 05:58:29;;;;;;;9.52;4.28;;;19.10;90.50;;;;;;5071819;28;20110;-71
2021/06/15 06:00:55;;;;;;;7.32;4.75;;;19.20;90.20;;;;;;5072857;28;20058;-64
2021/06/15 06:03:28;;;;;;;7.63;4.20;;;19.30;88.90;;;;;;5071467;28;20035;-63
2021/06/15 06:08:39;;;;;;;9.07;5.07;;;19.50;87.00;;;;;;5055638;28;20532;-69
2021/06/15 06:11:05;;;;;;;9.27;5.03;;;19.60;86.50;;;;;;5052365;28;20036;-65
2021/06/15 06:13:31;;;;;;;11.38;5.00;;;19.80;85.40;;;;;;5063376;28;20024;-65
2021/06/15 06:15:59;;;;;;;11.18;4.20;;;19.90;83.80;;;;;;5055516;28;20031;-64
2021/06/15 06:18:26;;;;;;;11.15;4.90;;;19.90;84.00;;;;;;5071986;28;20050;-64
2021/06/15 06:20:51;;;;;;;6.03;4.35;;;20.00;82.70;;;;;;5071934;28;20111;-65
2021/06/15 06:23:18;;;;;;;7.65;4.82;;;20.00;82.60;;;;;;5070722;28;20178;-65
2021/06/15 06:25:44;;;;;;;8.80;4.65;;;20.10;81.70;;;;;;5072599;28;20032;-62
2021/06/15 06:28:10;;;;;;;9.27;4.97;;;20.20;80.60;;;;;;5071996;28;20040;-62
2021/06/15 06:30:36;;;;;;;6.45;4.25;;;20.30;80.40;;;;;;5071585;28;20024;-63
2021/06/15 06:33:02;;;;;;;6.72;3.88;;;20.30;79.30;;;;;;5071068;28;20032;-63
2021/06/15 06:35:28;;;;;;;8.00;3.95;;;20.30;79.60;;;;;;5070721;28;20060;-63
2021/06/15 06:37:54;;;;;;;7.97;3.97;;;20.40;78.70;;;;;;5071611;28;20433;-63
2021/06/15 06:40:20;;;;;;;9.40;4.32;;;20.60;74.80;;;;;;5070324;28;20024;-64
2021/06/15 06:42:45;;;;;;;6.00;3.70;;;20.70;75.20;;;;;;5071331;28;20033;-63
2021/06/15 06:45:11;;;;;;;7.65;4.32;;;20.80;75.70;;;;;;5071330;28;20024;-63
2021/06/15 06:47:37;;;;;;;8.38;3.90;;;21.00;75.80;;;;;;5070152;28;20457;-63
2021/06/15 06:50:05;;;;;;;7.80;4.10;;;21.10;75.00;;;;;;5071083;28;20501;-63
2021/06/15 06:52:31;;;;;;;6.05;3.90;;;21.10;75.50;;;;;;5075342;28;20489;-63
2021/06/15 06:54:57;;;;;;;8.73;4.10;;;21.20;75.70;;;;;;5071942;28;20031;-63
2021/06/15 06:57:22;;;;;;;8.60;4.18;;;21.40;73.00;;;;;;5071173;28;20044;-63
2021/06/15 06:59:48;;;;;;;6.82;3.70;;;21.60;73.00;;;;;;5071380;28;20096;-63
2021/06/15 07:02:13;;;;;;;7.32;3.97;;;21.60;74.50;;;;;;5071215;28;20136;-64
2021/06/15 07:04:39;;;;;;;15.70;5.00;;;21.80;73.30;;;;;;5070825;28;20037;-63
2021/06/15 07:07:05;;;;;;;9.82;5.20;;;21.90;73.00;;;;;;5067892;28;20111;-63
2021/06/15 07:09:30;;;;;;;13.77;4.53;;;22.00;72.60;;;;;;5067670;28;20029;-63
2021/06/15 07:11:56;;;;;;;12.20;4.57;;;22.00;72.90;;;;;;5070230;28;20370;-63
2021/06/15 07:14:22;;;;;;;10.85;4.88;;;22.10;72.30;;;;;;5070371;28;20111;-63
2021/06/15 07:16:47;;;;;;;9.60;4.72;;;22.20;71.60;;;;;;5071552;28;20036;-64
2021/06/15 07:19:13;;;;;;;10.50;4.85;;;22.30;72.20;;;;;;5071363;28;20056;-64
2021/06/15 07:21:39;;;;;;;9.63;5.07;;;22.40;71.60;;;;;;5070068;28;20024;-63
2021/06/15 07:24:05;;;;;;;10.52;5.30;;;22.60;70.80;;;;;;5071209;28;20036;-63
2021/06/15 07:26:31;;;;;;;10.20;4.47;;;22.70;70.20;;;;;;5069856;28;20115;-63
2021/06/15 07:28:59;;;;;;;15.00;5.47;;;22.80;70.90;;;;;;5071233;28;20501;-63
2021/06/15 07:31:25;;;;;;;8.65;4.80;;;22.90;70.40;;;;;;5069968;28;20381;-64
2021/06/15 07:33:50;;;;;;;12.65;4.85;;;23.10;68.90;;;;;;5069853;28;20036;-63
2021/06/15 07:36:16;;;;;;;9.82;5.00;;;23.20;68.70;;;;;;5070480;28;20032;-63
2021/06/15 07:38:42;;;;;;;9.55;4.80;;;23.40;67.60;;;;;;5069856;28;20017;-63
2021/06/15 07:41:07;;;;;;;7.97;4.10;;;23.40;67.10;;;;;;5070160;28;20424;-63
2021/06/15 07:43:33;;;;;;;12.10;4.93;;;23.50;67.20;;;;;;5062603;28;20086;-63
2021/06/15 07:45:59;;;;;;;10.75;4.70;;;23.60;66.70;;;;;;5075041;28;20023;-63
2021/06/15 07:48:24;;;;;;;19.88;5.05;;;23.60;65.50;;;;;;5073341;28;20017;-63
2021/06/15 07:50:50;;;;;;;11.45;4.10;;;23.70;65.80;;;;;;5056137;28;20090;-63
2021/06/15 07:53:18;;;;;;;9.35;4.45;;;23.80;66.50;;;;;;5074569;28;20080;-63
2021/06/15 07:55:43;;;;;;;10.65;4.22;;;23.90;65.80;;;;;;5074187;28;20048;-63
2021/06/15 07:58:09;;;;;;;15.85;4.72;;;24.00;64.70;;;;;;5074442;28;20465;-63
2021/06/15 08:00:35;;;;;;;8.18;4.32;;;24.10;63.90;;;;;;5073540;28;20028;-63
2021/06/15 08:03:00;;;;;;;7.55;3.75;;;24.20;65.30;;;;;;5074129;28;20094;-63
2021/06/15 08:05:26;;;;;;;17.25;4.95;;;24.30;64.30;;;;;;5073756;28;20027;-63
2021/06/15 08:07:52;;;;;;;10.15;4.38;;;24.50;62.80;;;;;;5071534;28;20066;-63
2021/06/15 08:10:19;;;;;;;14.38;4.85;;;24.70;62.30;;;;;;5073676;28;20055;-64
2021/06/15 08:12:46;;;;;;;7.85;4.10;;;24.70;62.30;;;;;;5071788;28;20035;-63
2021/06/15 08:15:12;;;;;;;9.05;4.07;;;24.80;62.20;;;;;;5073867;28;20077;-63
2021/06/15 08:17:38;;;;;;;12.15;4.53;;;24.90;62.00;;;;;;5073490;28;20300;-63
2021/06/15 08:20:05;;;;;;;11.35;4.78;;;25.10;59.80;;;;;;5074038;28;20033;-63
2021/06/15 08:22:31;;;;;;;9.70;4.55;;;25.20;61.50;;;;;;5072738;28;20021;-63
2021/06/15 08:24:56;;;;;;;10.20;3.90;;;25.30;59.40;;;;;;5073515;28;20028;-63
2021/06/15 08:27:22;;;;;;;9.05;3.40;;;25.40;58.70;;;;;;5072820;28;20032;-64
2021/06/15 08:29:48;;;;;;;10.10;3.70;;;25.30;59.50;;;;;;5055914;28;20060;-63
2021/06/15 08:32:14;;;;;;;6.30;3.80;;;25.30;58.30;;;;;;5073166;28;20075;-63
2021/06/15 08:34:41;;;;;;;7.30;3.40;;;25.50;58.40;;;;;;5073263;28;20025;-63
2021/06/15 08:37:07;;;;;;;6.18;3.47;;;25.60;57.60;;;;;;5073561;28;20360;-63
2021/06/15 08:39:32;;;;;;;11.30;4.13;;;25.70;56.60;;;;;;5072848;28;20020;-63
2021/06/15 08:41:58;;;;;;;5.05;3.08;;;25.80;55.50;;;;;;5073329;28;20453;-64
2021/06/15 08:44:24;;;;;;;6.72;3.35;;;26.00;55.60;;;;;;5054518;28;20488;-63
2021/06/15 08:46:49;;;;;;;7.80;3.25;;;26.20;54.90;;;;;;5073915;28;20036;-63
2021/06/15 08:49:15;;;;;;;8.52;3.10;;;26.40;53.00;;;;;;5071367;28;20096;-63
2021/06/15 08:51:41;;;;;;;10.85;3.15;;;26.50;51.10;;;;;;5061681;28;20028;-63
2021/06/15 08:54:07;;;;;;;6.97;2.70;;;26.50;51.70;;;;;;5067523;28;20053;-63
2021/06/15 08:56:35;;;;;;;6.55;3.00;;;26.60;50.90;;;;;;5071787;28;20032;-63
2021/06/15 08:59:29;;;;;;;12.25;2.92;;;26.60;50.70;;;;;;5073485;28;20370;-63
2021/06/15 09:02:07;;;;;;;6.35;3.25;;;26.70;50.40;;;;;;5052504;28;20032;-63
2021/06/15 09:04:35;;;;;;;8.45;3.47;;;26.70;51.60;;;;;;5072263;28;20051;-63
2021/06/15 09:07:00;;;;;;;6.18;2.97;;;26.70;52.50;;;;;;5072215;28;20033;-64
2021/06/15 09:09:49;;;;;;;5.20;2.58;;;26.80;51.30;;;;;;5072226;28;20032;-64
2021/06/15 09:12:22;;;;;;;7.50;2.80;;;26.90;51.40;;;;;;5069009;28;20029;-64
2021/06/15 09:14:56;;;;;;;10.30;3.10;;;27.00;51.50;;;;;;5065423;28;20115;-63
2021/06/15 09:17:24;;;;;;;13.95;3.33;;;27.10;51.60;;;;;;5072592;28;20048;-65
2021/06/15 09:19:50;;;;;;;9.00;2.85;;;27.30;52.10;;;;;;5064940;28;20032;-63
2021/06/15 09:22:34;;;;;;;4.88;2.75;;;27.40;50.20;;;;;;5072635;28;20025;-64
2021/06/15 09:25:01;;;;;;;6.22;2.45;;;27.50;50.30;;;;;;5066205;28;20055;-64
2021/06/15 09:27:35;;;;;;;5.72;3.50;;;27.70;49.40;;;;;;5071803;28;20086;-63
2021/06/15 09:30:08;;;;;;;6.80;3.28;;;27.70;49.50;;;;;;5065375;28;20108;-64
2021/06/15 09:32:38;;;;;;;6.05;2.65;;;27.80;47.90;;;;;;5072058;28;20028;-64
2021/06/15 09:35:09;;;;;;;5.43;2.70;;;27.70;47.30;;;;;;5072729;28;20024;-64
2021/06/15 09:37:39;;;;;;;5.13;2.65;;;27.70;47.10;;;;;;5071637;28;20048;-64
2021/06/15 09:40:19;;;;;;;9.52;2.47;;;27.80;47.30;;;;;;5061141;28;20382;-64
2021/06/15 09:42:53;;;;;;;10.00;3.17;;;27.90;47.60;;;;;;5071422;28;20063;-64
2021/06/15 09:45:38;;;;;;;6.88;2.72;;;27.80;48.30;;;;;;5073152;28;20056;-63
2021/06/15 09:48:25;;;;;;;17.48;3.53;;;27.90;48.70;;;;;;5065142;28;20066;-63
2021/06/15 09:50:53;;;;;;;8.10;2.78;;;28.10;48.60;;;;;;5065850;28;20029;-63
2021/06/15 09:53:22;;;;;;;8.70;3.25;;;28.10;47.20;;;;;;5066099;28;20121;-64
2021/06/15 09:55:49;;;;;;;6.15;2.85;;;28.30;47.40;;;;;;5071585;28;20081;-64
2021/06/15 09:58:16;;;;;;;3.85;2.65;;;28.50;46.60;;;;;;5072055;28;20029;-64
2021/06/15 10:00:42;;;;;;;7.03;3.10;;;28.60;47.50;;;;;;5071397;28;20109;-64
2021/06/15 10:03:16;;;;;;;4.93;2.63;;;28.70;45.40;;;;;;5071463;28;20048;-64
2021/06/15 10:05:41;;;;;;;5.18;2.42;;;28.70;45.80;;;;;;5070463;28;20489;-63
2021/06/15 10:08:11;;;;;;;14.40;3.50;;;28.80;44.70;;;;;;5063690;28;20052;-64
2021/06/15 10:10:39;;;;;;;8.20;4.30;;;28.80;46.30;;;;;;5067052;28;20033;-64
2021/06/15 10:13:06;;;;;;;7.97;5.13;;;28.80;44.40;;;;;;5071847;28;20488;-64
2021/06/15 10:15:33;;;;;;;11.90;3.45;;;28.90;45.80;;;;;;5052654;28;20462;-64
2021/06/15 10:17:59;;;;;;;3.67;2.60;;;29.10;44.40;;;;;;5067307;28;20032;-65
2021/06/15 10:20:28;;;;;;;4.47;3.22;;;29.30;42.50;;;;;;5063116;28;20039;-64
2021/06/15 10:22:54;;;;;;;6.28;2.22;;;29.20;43.20;;;;;;5071901;28;20090;-64
2021/06/15 10:25:22;;;;;;;5.18;2.65;;;29.30;44.80;;;;;;5071680;28;20434;-64
2021/06/15 10:27:50;;;;;;;3.65;2.30;;;29.30;43.80;;;;;;5071002;28;20043;-63
2021/06/15 10:30:17;;;;;;;5.30;2.35;;;29.40;43.20;;;;;;5063734;28;20068;-64
2021/06/15 10:33:02;;;;;;;5.10;2.13;;;29.30;42.60;;;;;;5070554;28;20605;-65
2021/06/15 10:35:49;;;;;;;8.85;3.08;;;29.50;42.50;;;;;;5070969;28;20039;-64
2021/06/15 10:38:19;;;;;;;7.05;2.80;;;29.60;43.30;;;;;;5071228;28;20036;-64
2021/06/15 10:40:49;;;;;;;3.67;2.78;;;29.70;42.80;;;;;;5070507;28;20025;-64
2021/06/15 10:43:21;;;;;;;4.68;2.55;;;29.70;42.90;;;;;;5063077;28;20036;-64
2021/06/15 10:45:52;;;;;;;3.40;2.40;;;29.80;43.30;;;;;;5070279;28;20501;-64
2021/06/15 10:48:17;;;;;;;5.30;2.72;;;29.90;42.70;;;;;;5063701;28;20127;-63
2021/06/15 10:50:52;;;;;;;4.88;2.42;;;30.10;42.20;;;;;;5070320;28;20112;-64
2021/06/15 10:53:19;;;;;;;4.43;2.33;;;30.20;41.90;;;;;;5070771;28;20397;-64
2021/06/15 10:55:58;;;;;;;4.45;2.33;;;30.30;41.60;;;;;;5070343;28;20032;-64
2021/06/15 10:58:32;;;;;;;6.32;2.72;;;30.40;42.40;;;;;;5063786;28;20431;-65
2021/06/15 11:01:17;;;;;;;4.68;2.47;;;30.50;40.60;;;;;;5070982;28;20390;-64
2021/06/15 11:03:50;;;;;;;6.43;2.58;;;30.40;40.60;;;;;;5070013;28;20035;-64
2021/06/15 11:06:17;;;;;;;4.03;2.42;;;30.40;41.40;;;;;;5070452;28;20044;-63
2021/06/15 11:08:43;;;;;;;2.97;2.28;;;30.40;40.40;;;;;;5069492;28;20189;-64
2021/06/15 11:11:15;;;;;;;3.70;2.25;;;30.40;40.90;;;;;;5070741;28;20488;-64
2021/06/15 11:13:56;;;;;;;6.47;2.22;;;30.50;40.00;;;;;;5066846;28;20048;-64
2021/06/15 11:16:40;;;;;;;6.85;2.50;;;30.60;39.70;;;;;;5070969;28;20032;-63
2021/06/15 11:19:39;;;;;;;5.00;2.17;;;30.60;40.60;;;;;;5070671;28;20036;-64
2021/06/15 11:22:08;;;;;;;6.00;2.53;;;30.70;39.10;;;;;;5057280;28;20549;-64
2021/06/15 11:25:23;;;;;;;6.32;2.08;;;30.70;39.50;;;;;;5070091;28;20534;-64
2021/06/15 11:27:27;;;;;;;;;;;30.50;39.80;;;;;;5056413;28;20037;-64
2021/06/15 11:29:59;;;;;;;4.78;2.60;;;30.30;41.50;;;;;;5071131;28;20003;-64
2021/06/15 11:32:32;;;;;;;2.42;2.20;;;30.20;39.50;;;;;;5070605;28;20029;-64
2021/06/15 11:34:58;;;;;;;3.45;2.30;;;30.00;40.70;;;;;;5071003;28;20032;-64
2021/06/15 11:37:53;;;;;;;5.68;2.30;;;30.00;39.10;;;;;;5070571;28;20431;-64
2021/06/15 11:40:35;;;;;;;4.60;2.20;;;29.90;40.70;;;;;;5048558;28;20067;-64
2021/06/15 11:43:07;;;;;;;4.53;2.25;;;30.10;39.00;;;;;;5064229;28;20043;-65
2021/06/15 11:45:34;;;;;;;5.28;2.22;;;30.20;39.00;;;;;;5069754;28;20039;-65
2021/06/15 11:48:19;;;;;;;6.57;2.63;;;30.40;40.00;;;;;;5070341;28;20025;-65
2021/06/15 11:50:53;;;;;;;6.28;2.40;;;30.50;39.70;;;;;;5069973;28;20040;-65
2021/06/15 11:53:20;;;;;;;3.40;1.92;;;30.60;39.30;;;;;;5070053;28;20049;-65
2021/06/15 11:55:52;;;;;;;7.80;2.13;;;30.60;39.90;;;;;;5061283;28;20039;-65
2021/06/15 11:58:21;;;;;;;4.97;2.10;;;30.60;38.80;;;;;;5070613;28;20040;-65
2021/06/15 12:00:52;;;;;;;1.92;1.73;;;30.60;39.30;;;;;;5069557;28;20073;-65
2021/06/15 12:03:20;;;;;;;5.05;2.03;;;30.80;37.60;;;;;;5070413;28;20033;-66
2021/06/15 12:05:49;;;;;;;6.55;1.90;;;30.80;38.30;;;;;;5069720;28;20111;-65
2021/06/15 12:08:15;;;;;;;3.35;1.90;;;30.80;38.00;;;;;;5070212;28;20039;-65
2021/06/15 12:10:42;;;;;;;2.38;1.70;;;30.90;35.30;;;;;;5069100;28;20099;-65
2021/06/15 12:13:19;;;;;;;3.13;1.83;;;30.80;36.00;;;;;;5067327;28;20045;-65
2021/06/15 12:15:59;;;;;;;3.58;1.65;;;31.00;35.60;;;;;;5069750;28;20032;-65
2021/06/15 12:18:27;;;;;;;2.97;1.75;;;31.10;36.10;;;;;;5070572;28;20040;-65
2021/06/15 12:21:17;;;;;;;4.85;2.00;;;31.40;35.20;;;;;;5070047;28;20032;-65
2021/06/15 12:23:59;;;;;;;4.38;1.90;;;31.70;35.00;;;;;;5069783;28;20029;-65
2021/06/15 12:26:43;;;;;;;2.33;1.73;;;32.00;34.20;;;;;;5070238;28;20032;-66
2021/06/15 12:29:12;;;;;;;4.82;1.92;;;32.20;34.20;;;;;;5070243;28;20031;-66
2021/06/15 12:31:40;;;;;;;3.25;1.90;;;32.20;35.90;;;;;;5071589;28;20508;-65
2021/06/15 12:34:14;;;;;;;2.75;1.88;;;32.10;34.60;;;;;;5073981;28;20037;-66
2021/06/15 12:36:43;;;;;;;4.40;2.03;;;31.90;36.80;;;;;;5072674;28;20028;-63
2021/06/15 12:39:27;;;;;;;5.03;1.85;;;31.70;34.70;;;;;;5073335;28;20029;-63
2021/06/15 12:42:01;;;;;;;2.33;1.73;;;31.80;33.20;;;;;;5071992;28;20024;-63
2021/06/15 12:44:39;;;;;;;3.60;1.73;;;31.90;34.40;;;;;;5070947;28;20398;-64
2021/06/15 12:47:07;;;;;;;2.03;1.45;;;32.00;33.30;;;;;;5068213;28;20044;-63
2021/06/15 12:49:34;;;;;;;3.55;1.63;;;31.90;34.10;;;;;;5072847;28;20373;-63
2021/06/15 12:52:12;;;;;;;2.08;1.50;;;32.00;33.60;;;;;;5073261;28;20108;-64
2021/06/15 12:54:42;;;;;;;1.67;1.42;;;31.90;33.80;;;;;;5072562;28;20059;-64
2021/06/15 12:57:18;;;;;;;3.85;1.30;;;31.60;33.30;;;;;;5073428;28;20040;-65
2021/06/15 13:00:05;;;;;;;3.17;1.33;;;31.50;30.80;;;;;;5072417;28;20025;-64
2021/06/15 13:02:31;;;;;;;2.85;1.30;;;31.50;32.80;;;;;;5071837;28;20458;-65